createdAt,value
2022-09-04T00:00:19.361Z,16.86
2022-09-04T00:02:58.520Z,16.95
2022-09-04T00:05:45.714Z,16.88
2022-09-04T00:08:53.758Z,16.87
2022-09-04T00:11:38.082Z,16.93
2022-09-04T00:14:17.604Z,16.95
2022-09-04T00:16:55.336Z,16.86
2022-09-04T00:19:37.429Z,16.80
2022-09-04T00:22:30.485Z,16.87
2022-09-04T00:25:28.649Z,16.82
2022-09-04T00:28:04.853Z,16.72
2022-09-04T00:30:32.451Z,16.64
2022-09-04T00:33:19.448Z,16.59
2022-09-04T00:35:59.070Z,16.83
2022-09-04T00:38:42.278Z,16.73
2022-09-04T00:41:26.917Z,16.79
2022-09-04T00:44:11.488Z,16.65
2022-09-04T00:47:02.833Z,16.56
2022-09-04T00:49:59.582Z,16.57
2022-09-04T00:56:44.951Z,16.67
2022-09-04T00:59:49.118Z,16.57
2022-09-04T01:02:30.151Z,16.46
2022-09-04T01:05:45.511Z,16.40
2022-09-04T01:08:28.488Z,16.52
2022-09-04T01:11:13.254Z,16.32
2022-09-04T01:13:43.752Z,16.21
2022-09-04T01:16:18.829Z,16.01
2022-09-04T01:22:54.188Z,16.05
2022-09-04T01:25:26.615Z,16.04
2022-09-04T01:28:07.411Z,15.89
2022-09-04T01:30:49.359Z,16.05
2022-09-04T01:33:24.175Z,16.18
2022-09-04T01:36:03.285Z,16.20
2022-09-04T01:38:53.563Z,15.98
2022-09-04T01:41:28.307Z,15.88
2022-09-04T01:43:54.799Z,16.01
2022-09-04T01:46:23.997Z,15.96
2022-09-04T01:49:11.104Z,15.92
2022-09-04T01:51:47.967Z,15.94
2022-09-04T01:54:43.970Z,15.97
2022-09-04T01:57:38.328Z,15.87
2022-09-04T02:00:16.126Z,15.74
2022-09-04T02:02:55.958Z,15.81
2022-09-04T02:05:28.356Z,15.64
2022-09-04T02:11:56.844Z,15.71
2022-09-04T02:14:32.906Z,15.60
2022-09-04T02:17:40.805Z,15.51
2022-09-04T02:20:23.206Z,15.31
2022-09-04T02:22:55.325Z,15.40
2022-09-04T02:25:36.388Z,15.48
2022-09-04T02:28:30.718Z,15.50
2022-09-04T02:31:12.424Z,15.40
2022-09-04T02:34:09.997Z,15.16
2022-09-04T02:36:59.730Z,15.05
2022-09-04T02:39:32.680Z,15.00
2022-09-04T02:42:21.100Z,15.07
2022-09-04T02:45:38.720Z,15.14
2022-09-04T02:48:14.425Z,14.93
2022-09-04T02:50:57.151Z,14.92
2022-09-04T02:53:35.138Z,14.96
2022-09-04T02:56:10.794Z,15.02
2022-09-04T02:58:50.180Z,14.86
2022-09-04T03:01:39.974Z,14.74
2022-09-04T03:04:26.004Z,14.87
2022-09-04T03:06:54.197Z,14.78
2022-09-04T03:09:29.226Z,14.68
2022-09-04T03:12:15.166Z,14.79
2022-09-04T03:15:10.984Z,14.71
2022-09-04T03:17:49.536Z,14.77
2022-09-04T03:20:40.190Z,14.70
2022-09-04T03:23:17.486Z,14.79
2022-09-04T03:26:23.189Z,14.86
2022-09-04T03:29:10.073Z,14.54
2022-09-04T03:32:13.455Z,14.36
2022-09-04T03:34:47.599Z,14.64
2022-09-04T03:37:39.470Z,14.56
2022-09-04T03:40:30.395Z,14.53
2022-09-04T03:43:03.167Z,14.76
2022-09-04T03:45:38.389Z,14.75
2022-09-04T03:52:06.596Z,14.59
2022-09-04T03:54:51.309Z,14.46
2022-09-04T03:57:27.099Z,14.42
2022-09-04T04:00:12.789Z,14.46
2022-09-04T04:03:01.509Z,14.43
2022-09-04T04:05:28.578Z,14.43
2022-09-04T04:08:30.367Z,14.68
2022-09-04T04:11:08.336Z,14.60
2022-09-04T04:13:53.381Z,14.60
2022-09-04T04:16:40.530Z,14.50
2022-09-04T04:19:20.442Z,14.56
2022-09-04T04:22:20.422Z,14.36
2022-09-04T04:25:02.029Z,14.36
2022-09-04T04:28:02.920Z,14.30
2022-09-04T04:30:50.275Z,14.29
2022-09-04T04:33:16.661Z,14.36
2022-09-04T04:35:52.179Z,14.34
2022-09-04T04:38:48.900Z,14.43
2022-09-04T04:41:24.853Z,14.42
2022-09-04T04:44:43.699Z,14.50
2022-09-04T04:47:22.198Z,14.33
2022-09-04T04:50:06.268Z,14.26
2022-09-04T04:52:40.400Z,14.38
2022-09-04T04:55:31.389Z,14.32
2022-09-04T04:58:00.925Z,14.27
2022-09-04T05:00:33.890Z,14.17
2022-09-04T05:03:49.899Z,14.21
2022-09-04T05:06:22.444Z,14.11
2022-09-04T05:09:01.898Z,14.01
2022-09-04T05:11:46.817Z,14.10
2022-09-04T05:14:42.143Z,14.04
2022-09-04T05:17:11.516Z,13.96
2022-09-04T05:20:05.780Z,13.83
2022-09-04T05:22:46.515Z,13.93
2022-09-04T05:25:44.709Z,13.93
2022-09-04T05:28:30.058Z,13.89
2022-09-04T05:31:11.077Z,14.02
2022-09-04T05:33:57.486Z,13.90
2022-09-04T05:36:50.254Z,13.82
2022-09-04T05:39:27.758Z,13.83
2022-09-04T05:42:15.386Z,14.22
2022-09-04T05:44:53.954Z,14.18
2022-09-04T05:51:39.035Z,14.24
2022-09-04T05:54:24.121Z,14.14
2022-09-04T05:57:14.555Z,14.28
2022-09-04T06:00:16.936Z,14.32
2022-09-04T06:03:17.197Z,14.53
2022-09-04T06:06:01.947Z,14.74
2022-09-04T06:08:28.931Z,14.77
2022-09-04T06:15:24.490Z,14.92
2022-09-04T06:17:59.739Z,15.10
2022-09-04T06:20:41.058Z,15.15
2022-09-04T06:23:10.475Z,15.23
2022-09-04T06:26:12.045Z,15.31
2022-09-04T06:29:05.264Z,15.53
2022-09-04T06:31:51.310Z,15.63
2022-09-04T06:34:45.914Z,15.76
2022-09-04T06:37:50.817Z,15.83
2022-09-04T06:40:28.073Z,15.85
2022-09-04T06:43:13.351Z,16.00
2022-09-04T06:49:45.323Z,16.21
2022-09-04T06:52:30.721Z,16.40
2022-09-04T06:55:12.409Z,16.52
2022-09-04T06:57:50.130Z,16.66
2022-09-04T07:00:20.235Z,16.73
2022-09-04T07:03:01.707Z,16.89
2022-09-04T07:05:28.191Z,16.95
2022-09-04T07:08:09.933Z,17.13
2022-09-04T07:11:17.136Z,17.25
2022-09-04T07:14:16.284Z,17.40
2022-09-04T07:20:55.621Z,17.77
2022-09-04T07:23:32.667Z,17.81
2022-09-04T07:26:28.488Z,18.09
2022-09-04T07:29:14.068Z,18.31
2022-09-04T07:31:54.475Z,18.43
2022-09-04T07:38:21.192Z,18.75
2022-09-04T07:41:04.416Z,18.99
2022-09-04T07:43:54.651Z,19.14
2022-09-04T07:50:17.562Z,19.16
2022-09-04T07:53:09.433Z,19.38
2022-09-04T07:55:37.830Z,19.44
2022-09-04T07:59:00.561Z,19.66
2022-09-04T08:01:52.207Z,19.91
2022-09-04T08:05:15.838Z,20.15
2022-09-04T08:08:08.127Z,20.15
2022-09-04T08:10:42.577Z,20.23
2022-09-04T08:13:34.537Z,20.20
2022-09-04T08:16:14.383Z,20.47
2022-09-04T08:19:15.698Z,20.51
2022-09-04T08:21:44.099Z,20.80
2022-09-04T08:24:37.207Z,20.88
2022-09-04T08:27:34.982Z,20.91
2022-09-04T08:30:11.248Z,21.14
2022-09-04T08:33:16.524Z,21.29
2022-09-04T08:36:12.575Z,21.11
2022-09-04T08:38:55.449Z,21.51
2022-09-04T08:41:57.265Z,21.80
2022-09-04T08:44:32.710Z,22.02
2022-09-04T08:47:34.489Z,22.08
2022-09-04T08:50:13.990Z,22.08
2022-09-04T08:53:07.930Z,21.98
2022-09-04T08:55:59.641Z,21.77
2022-09-04T08:59:03.666Z,22.13
2022-09-04T09:01:52.642Z,22.37
2022-09-04T09:04:50.165Z,22.72
2022-09-04T09:07:31.743Z,22.61
2022-09-04T09:10:38.396Z,22.41
2022-09-04T09:13:29.961Z,22.44
2022-09-04T09:16:32.981Z,22.25
2022-09-04T09:19:19.113Z,22.80
2022-09-04T09:22:12.492Z,22.35
2022-09-04T09:25:01.297Z,22.64
2022-09-04T09:27:38.831Z,22.61
2022-09-04T09:30:24.452Z,22.54
2022-09-04T09:33:32.572Z,22.83
2022-09-04T09:36:44.380Z,23.44
2022-09-04T09:39:29.118Z,23.53
2022-09-04T09:42:01.118Z,23.40
2022-09-04T09:44:46.380Z,23.28
2022-09-04T09:47:31.538Z,23.14
2022-09-04T09:50:13.420Z,23.34
2022-09-04T09:57:04.486Z,23.86
2022-09-04T10:00:05.959Z,24.16
2022-09-04T10:03:33.755Z,24.70
2022-09-04T10:06:29.962Z,24.80
2022-09-04T10:09:47.178Z,24.72
2022-09-04T10:12:43.241Z,25.09
2022-09-04T10:15:48.161Z,25.37
2022-09-04T10:18:32.816Z,25.75
2022-09-04T10:21:10.478Z,26.09
2022-09-04T10:24:10.264Z,26.45
2022-09-04T10:27:15.166Z,26.58
2022-09-04T10:29:58.612Z,25.95
2022-09-04T10:36:19.968Z,26.43
2022-09-04T10:39:41.362Z,26.95
2022-09-04T10:42:21.010Z,26.78
2022-09-04T10:48:28.849Z,27.17
2022-09-04T10:51:19.189Z,27.10
2022-09-04T10:54:07.741Z,27.47
2022-09-04T10:56:43.449Z,27.72
2022-09-04T10:59:37.663Z,27.62
2022-09-04T11:02:26.006Z,27.94
2022-09-04T11:05:32.194Z,28.37
2022-09-04T11:08:09.239Z,28.11
2022-09-04T11:14:31.808Z,27.79
2022-09-04T11:17:13.470Z,27.48
2022-09-04T11:20:01.758Z,27.90
2022-09-04T11:22:34.903Z,28.26
2022-09-04T11:25:33.152Z,27.47
2022-09-04T11:28:36.034Z,27.05
2022-09-04T11:31:10.520Z,27.00
2022-09-04T11:33:58.082Z,27.90
2022-09-04T11:36:30.580Z,28.89
2022-09-04T11:39:27.315Z,29.70
2022-09-04T11:42:19.493Z,29.03
2022-09-04T11:45:17.256Z,29.44
2022-09-04T11:48:03.204Z,29.78
2022-09-04T11:50:56.311Z,29.64
2022-09-04T11:53:34.708Z,29.34
2022-09-04T11:56:29.885Z,28.72
2022-09-04T12:03:10.849Z,30.27
2022-09-04T12:05:50.623Z,30.45
2022-09-04T12:08:23.029Z,31.55
2022-09-04T12:11:04.614Z,31.96
2022-09-04T12:13:40.085Z,32.82
2022-09-04T12:20:36.408Z,32.59
2022-09-04T12:27:24.270Z,29.87
2022-09-04T12:33:49.896Z,29.23
2022-09-04T12:40:41.546Z,28.60
2022-09-04T12:51:01.372Z,28.31
2022-09-04T12:53:44.998Z,29.63
2022-09-04T12:56:22.867Z,30.42
2022-09-04T12:59:26.626Z,30.08
2022-09-04T13:06:17.782Z,31.71
2022-09-04T13:12:38.194Z,31.67
2022-09-04T13:15:28.597Z,31.99
2022-09-04T13:18:12.411Z,32.95
2022-09-04T13:21:20.475Z,32.82
2022-09-04T13:27:40.836Z,34.70
2022-09-04T13:34:03.737Z,34.15
2022-09-04T13:40:54.840Z,31.99
2022-09-04T13:43:35.713Z,32.10
2022-09-04T13:46:07.927Z,31.46
2022-09-04T13:52:31.026Z,29.35
2022-09-04T13:55:10.099Z,29.64
2022-09-04T13:57:41.698Z,29.33
2022-09-04T14:00:08.870Z,29.09
2022-09-04T14:06:24.227Z,28.98
2022-09-04T14:09:05.135Z,29.38
2022-09-04T14:12:06.499Z,30.97
2022-09-04T14:14:59.530Z,31.91
2022-09-04T14:18:13.891Z,33.94
2022-09-04T14:24:41.985Z,33.99
2022-09-04T14:27:31.858Z,32.38
2022-09-04T14:30:01.924Z,31.56
2022-09-04T14:36:35.735Z,30.60
2022-09-04T14:39:29.497Z,30.53
2022-09-04T14:42:33.517Z,30.62
2022-09-04T14:45:18.119Z,30.34
2022-09-04T14:47:54.760Z,31.14
2022-09-04T14:50:28.446Z,30.13
2022-09-04T14:52:58.720Z,29.93
2022-09-04T14:55:28.232Z,29.69
2022-09-04T14:57:59.473Z,29.73
2022-09-04T15:00:29.151Z,29.99
2022-09-04T15:03:09.095Z,29.99
2022-09-04T15:05:51.464Z,29.77
2022-09-04T15:08:39.937Z,29.85
2022-09-04T15:11:14.012Z,29.91
2022-09-04T15:13:52.472Z,30.27
2022-09-04T15:16:21.904Z,30.47
2022-09-04T15:18:55.300Z,30.20
2022-09-04T15:21:31.530Z,30.10
2022-09-04T15:24:03.269Z,29.44
2022-09-04T15:26:46.261Z,29.15
2022-09-04T15:29:27.124Z,28.56
2022-09-04T15:32:02.804Z,28.47
2022-09-04T15:34:30.227Z,28.48
2022-09-04T15:41:16.223Z,27.91
2022-09-04T15:43:58.251Z,27.75
2022-09-04T15:46:35.176Z,27.73
2022-09-04T15:49:26.370Z,27.55
2022-09-04T15:52:21.408Z,27.57
2022-09-04T15:55:09.314Z,27.56
2022-09-04T15:57:46.401Z,27.99
2022-09-04T16:00:15.486Z,27.94
2022-09-04T16:03:20.809Z,27.45
2022-09-04T16:05:51.557Z,27.38
2022-09-04T16:08:23.564Z,27.47
2022-09-04T16:10:57.466Z,27.40
2022-09-04T16:13:27.152Z,27.26
2022-09-04T16:16:03.988Z,27.35
2022-09-04T16:18:47.151Z,27.27
2022-09-04T16:21:23.448Z,26.96
2022-09-04T16:23:50.423Z,26.91
2022-09-04T16:26:27.193Z,26.86
2022-09-04T16:28:58.734Z,26.98
2022-09-04T16:31:31.212Z,26.95
2022-09-04T16:34:20.240Z,26.85
2022-09-04T16:36:55.560Z,26.79
2022-09-04T16:39:42.110Z,26.61
2022-09-04T16:42:19.454Z,26.49
2022-09-04T16:44:48.006Z,26.51
2022-09-04T16:47:22.615Z,26.57
2022-09-04T16:50:35.564Z,26.66
2022-09-04T16:53:19.014Z,26.70
2022-09-04T16:55:52.371Z,26.71
2022-09-04T16:58:29.965Z,26.51
2022-09-04T17:01:26.201Z,26.49
2022-09-04T17:04:12.597Z,26.30
2022-09-04T17:06:47.779Z,26.25
2022-09-04T17:09:28.560Z,26.11
2022-09-04T17:11:58.698Z,25.95
2022-09-04T17:14:35.875Z,25.79
2022-09-04T17:23:41.263Z,25.54
2022-09-04T17:28:56.162Z,25.54
2022-09-04T17:29:11.494Z,25.34
2022-09-04T17:29:38.169Z,25.35
2022-09-04T17:35:25.840Z,25.25
2022-09-04T17:40:44.350Z,25.22
2022-09-04T17:40:52.232Z,24.99
2022-09-04T17:41:36.462Z,24.91
2022-09-04T17:44:26.488Z,24.69
2022-09-04T17:47:11.156Z,24.59
2022-09-04T17:49:43.525Z,24.46
2022-09-04T17:52:11.567Z,24.45
2022-09-04T17:54:40.978Z,24.37
2022-09-04T17:57:21.468Z,24.21
2022-09-04T17:59:53.698Z,24.16
2022-09-04T18:02:29.569Z,24.06
2022-09-04T18:05:03.415Z,24.10
2022-09-04T18:08:09.065Z,23.97
2022-09-04T18:10:35.522Z,23.82
2022-09-04T18:13:36.348Z,23.75
2022-09-04T18:16:53.158Z,23.57
2022-09-04T18:23:16.779Z,23.59
2022-09-04T18:25:54.228Z,23.48
2022-09-04T18:28:34.258Z,23.41
2022-09-04T18:37:13.062Z,23.29
2022-09-04T18:37:25.136Z,23.16
2022-09-04T18:37:43.887Z,23.07
2022-09-04T18:40:17.165Z,22.88
2022-09-04T18:50:31.550Z,22.84
2022-09-04T18:50:38.247Z,22.74
2022-09-04T18:50:44.668Z,22.67
2022-09-04T18:51:57.936Z,22.60
2022-09-04T18:54:41.697Z,22.57
2022-09-04T18:57:49.115Z,22.50
2022-09-04T19:00:23.959Z,22.52
2022-09-04T19:03:14.146Z,22.49
2022-09-04T19:06:03.877Z,22.31
2022-09-04T19:08:37.317Z,22.07
2022-09-04T19:11:39.991Z,22.06
2022-09-04T19:14:15.415Z,22.09
2022-09-04T19:16:47.003Z,22.14
2022-09-04T19:19:21.454Z,21.98
2022-09-04T19:21:58.489Z,21.92
2022-09-04T19:25:38.952Z,21.97
2022-09-04T19:27:55.491Z,22.06
2022-09-04T19:30:25.113Z,21.96
2022-09-04T19:33:03.106Z,21.78
2022-09-04T19:35:36.826Z,21.70
2022-09-04T19:45:55.729Z,21.67
2022-09-04T19:45:59.348Z,21.67
2022-09-04T19:46:13.088Z,21.51
2022-09-04T19:47:37.209Z,21.50
2022-09-04T19:53:19.182Z,21.46
2022-09-04T19:53:40.444Z,21.26
2022-09-04T19:56:28.924Z,21.05
2022-09-04T20:06:31.212Z,20.67
2022-09-04T20:09:16.300Z,20.74
2022-09-04T20:11:54.093Z,20.75
2022-09-04T20:14:31.839Z,20.73
2022-09-04T20:17:09.005Z,20.61
2022-09-04T20:19:40.870Z,20.62
2022-09-04T20:26:25.083Z,20.57
2022-09-04T20:29:10.737Z,20.72
2022-09-04T20:31:56.096Z,20.53
2022-09-04T20:34:50.643Z,20.40
2022-09-04T20:41:20.631Z,20.48
2022-09-04T20:44:06.582Z,20.23
2022-09-04T20:50:25.837Z,20.11
2022-09-04T20:52:52.601Z,19.84
2022-09-04T20:53:34.959Z,19.72
2022-09-04T20:56:09.369Z,19.64
2022-09-04T21:03:05.922Z,19.57
2022-09-04T21:03:19.611Z,19.69
2022-09-04T21:04:48.684Z,19.67
2022-09-04T21:07:22.719Z,19.66
2022-09-04T21:14:00.600Z,19.56
2022-09-04T21:17:02.304Z,19.48
2022-09-04T21:19:58.267Z,19.38
2022-09-04T21:22:54.012Z,19.22
2022-09-04T21:25:30.714Z,19.31
2022-09-04T21:28:06.381Z,19.31
2022-09-04T21:30:52.142Z,19.25
2022-09-04T21:33:55.632Z,19.27
2022-09-04T21:36:30.127Z,19.20
2022-09-04T21:39:28.463Z,19.16
2022-09-04T21:42:20.188Z,19.02
2022-09-04T21:45:14.466Z,19.07
2022-09-04T21:47:48.973Z,19.01
2022-09-04T21:50:47.570Z,18.95
2022-09-04T21:53:32.826Z,18.97
2022-09-04T22:02:31.938Z,18.95
2022-09-04T22:02:35.907Z,18.90
2022-09-04T22:03:34.606Z,18.85
2022-09-04T22:07:05.286Z,18.81
2022-09-04T22:13:47.934Z,18.65
2022-09-04T22:16:46.460Z,18.65
2022-09-04T22:19:41.383Z,18.61
2022-09-04T22:22:26.551Z,18.50
2022-09-04T22:25:30.300Z,18.49
2022-09-04T22:28:15.151Z,18.48
2022-09-04T22:30:50.278Z,18.54
2022-09-04T22:33:24.653Z,18.55
2022-09-04T22:36:13.315Z,18.50
2022-09-04T22:38:54.873Z,18.43
2022-09-04T22:41:58.125Z,18.47
2022-09-04T22:44:36.529Z,18.35
2022-09-04T22:47:40.387Z,18.35
2022-09-04T22:50:21.333Z,18.11
2022-09-04T22:53:18.209Z,18.03
2022-09-04T22:56:11.199Z,18.24
2022-09-04T22:59:26.140Z,18.50
2022-09-04T23:03:03.654Z,18.32
2022-09-04T23:06:18.917Z,18.49
2022-09-04T23:13:42.487Z,18.23
2022-09-04T23:14:01.607Z,18.03
2022-09-04T23:15:12.380Z,17.83
2022-09-04T23:19:36.096Z,17.91
2022-09-04T23:26:44.300Z,17.86
2022-09-04T23:28:02.586Z,17.72
2022-09-04T23:31:08.589Z,17.75
2022-09-04T23:33:49.402Z,17.82
2022-09-04T23:36:40.531Z,17.74
2022-09-04T23:39:27.823Z,17.68
2022-09-04T23:42:06.341Z,17.70
2022-09-04T23:45:10.285Z,17.64
2022-09-04T23:47:58.034Z,17.90
2022-09-04T23:50:47.298Z,18.09
2022-09-04T23:53:46.537Z,17.86
2022-09-04T23:56:43.802Z,17.84
2022-09-04T23:59:35.934Z,17.81
